Time;durP1;ratioP1;P1;durP2;ratioP2;P2;SDS_P1;SDS_P2;PMS_P1;PMS_P2;Temp;Humidity;BMP_temperature;BMP_pressure;BME280_temperature;BME280_humidity;BME280_pressure;Samples;Min_cycle;Max_cycle;Signal;HPM_P1;HPM_P2
2022/05/20 00:00:10;;;;;;;1.90;1.50;;;;;;;;;;5013356;28;20033;-71
2022/05/20 00:02:36;;;;;;;1.55;1.30;;;;;;;;;;5012854;28;20048;-73
2022/05/20 00:05:01;;;;;;;2.10;1.40;;;;;;;;;;5012717;28;20041;-76
2022/05/20 00:07:27;;;;;;;3.97;2.08;;;;;;;;;;5013747;28;20052;-74
2022/05/20 00:09:52;;;;;;;3.25;1.73;;;;;;;;;;5002483;28;20119;-71
2022/05/20 00:12:19;;;;;;;2.25;1.48;;;;;;;;;;5013582;28;20503;-75
2022/05/20 00:14:44;;;;;;;4.00;1.33;;;;;;;;;;5012199;28;20429;-72
2022/05/20 00:17:10;;;;;;;1.92;1.40;;;;;;;;;;5013214;28;20032;-72
2022/05/20 00:19:35;;;;;;;2.05;1.23;;;;;;;;;;5015438;28;20029;-73
2022/05/20 00:22:01;;;;;;;2.28;1.27;;;;;;;;;;5016000;28;20073;-72
2022/05/20 00:24:27;;;;;;;1.90;1.00;;;;;;;;;;5014079;28;20160;-74
2022/05/20 00:26:53;;;;;;;1.25;1.15;;;;;;;;;;5009853;28;20030;-72
2022/05/20 00:29:18;;;;;;;1.33;1.10;;;;;;;;;;4998718;28;20021;-74
2022/05/20 00:31:44;;;;;;;1.42;1.23;;;;;;;;;;4994245;28;20124;-72
2022/05/20 00:34:09;;;;;;;2.00;1.50;;;;;;;;;;4996045;28;20123;-72
2022/05/20 00:36:35;;;;;;;3.17;1.73;;;;;;;;;;5012212;28;20029;-72
2022/05/20 00:39:00;;;;;;;3.28;2.08;;;;;;;;;;5010917;28;20022;-72
2022/05/20 00:41:25;;;;;;;2.70;1.60;;;;;;;;;;5011465;28;20029;-74
2022/05/20 00:43:51;;;;;;;9.25;4.00;;;;;;;;;;5003518;28;20038;-73
2022/05/20 00:46:18;;;;;;;9.65;4.28;;;;;;;;;;5010600;28;20031;-75
2022/05/20 00:48:44;;;;;;;13.60;5.50;;;;;;;;;;5000600;28;20407;-72
2022/05/20 00:51:09;;;;;;;10.18;3.78;;;;;;;;;;5006361;28;20116;-72
2022/05/20 00:53:52;;;;;;;10.73;3.88;;;;;;;;;;5018690;28;20144;-72
2022/05/20 00:56:20;;;;;;;6.20;2.83;;;;;;;;;;4996912;28;20079;-73
2022/05/20 00:58:45;;;;;;;5.75;2.25;;;;;;;;;;5016866;28;20014;-75
2022/05/20 01:01:11;;;;;;;2.70;1.85;;;;;;;;;;4988077;28;20040;-73
2022/05/20 01:03:37;;;;;;;1.48;1.38;;;;;;;;;;5016703;28;20037;-73
2022/05/20 01:06:02;;;;;;;3.30;1.42;;;;;;;;;;5015535;28;20445;-72
2022/05/20 01:08:30;;;;;;;1.98;1.33;;;;;;;;;;4999840;28;20072;-72
2022/05/20 01:10:55;;;;;;;1.92;1.23;;;;;;;;;;4998184;28;20823;-72
2022/05/20 01:13:23;;;;;;;2.90;1.90;;;;;;;;;;5015041;28;20576;-73
2022/05/20 01:15:49;;;;;;;1.60;1.50;;;;;;;;;;5017073;28;20104;-72
2022/05/20 01:18:15;;;;;;;1.67;1.15;;;;;;;;;;5017998;28;20241;-73
2022/05/20 01:20:43;;;;;;;2.33;1.40;;;;;;;;;;5016028;28;20470;-73
2022/05/20 01:23:11;;;;;;;2.30;1.80;;;;;;;;;;5014910;28;20061;-75
2022/05/20 01:25:39;;;;;;;2.45;1.58;;;;;;;;;;5013352;28;20104;-72
2022/05/20 01:28:04;;;;;;;1.83;1.65;;;;;;;;;;5005791;28;20496;-72
2022/05/20 01:30:31;;;;;;;2.38;1.30;;;;;;;;;;5014380;28;20240;-73
2022/05/20 01:32:59;;;;;;;2.05;1.48;;;;;;;;;;5016975;28;20068;-73
2022/05/20 01:35:27;;;;;;;2.58;1.45;;;;;;;;;;5012173;28;20068;-72
2022/05/20 01:37:52;;;;;;;2.15;1.75;;;;;;;;;;4999656;28;20037;-76
2022/05/20 01:40:17;;;;;;;4.10;2.30;;;;;;;;;;5008292;28;20022;-73
2022/05/20 01:42:56;;;;;;;7.78;3.03;;;;;;;;;;5014266;28;20080;-72
2022/05/20 01:45:26;;;;;;;7.53;3.28;;;;;;;;;;5017011;28;20030;-73
2022/05/20 01:48:05;;;;;;;6.47;3.55;;;;;;;;;;5015751;28;20361;-72
2022/05/20 01:50:33;;;;;;;5.43;3.35;;;;;;;;;;5015355;28;20013;-72
2022/05/20 01:52:58;;;;;;;4.75;3.13;;;;;;;;;;5008463;28;20061;-72
2022/05/20 01:55:30;;;;;;;3.42;2.10;;;;;;;;;;4994325;28;20025;-73
2022/05/20 01:58:02;;;;;;;2.20;1.70;;;;;;;;;;4997838;28;20065;-73
2022/05/20 02:00:30;;;;;;;2.72;1.73;;;;;;;;;;5002873;28;20049;-72
2022/05/20 02:03:01;;;;;;;2.30;1.80;;;;;;;;;;5002265;28;20022;-76
2022/05/20 02:05:47;;;;;;;2.35;1.95;;;;;;;;;;5001415;28;20030;-72
2022/05/20 02:08:17;;;;;;;2.25;1.70;;;;;;;;;;5001167;28;20030;-74
2022/05/20 02:10:54;;;;;;;7.07;2.17;;;;;;;;;;5002547;28;20540;-74
2022/05/20 02:13:19;;;;;;;4.25;2.10;;;;;;;;;;5002067;28;20074;-72
2022/05/20 02:15:50;;;;;;;2.55;1.60;;;;;;;;;;4998373;28;20053;-73
2022/05/20 02:18:24;;;;;;;3.58;1.80;;;;;;;;;;4988988;28;20026;-70
2022/05/20 02:20:53;;;;;;;3.85;2.15;;;;;;;;;;4989401;28;20045;-70
2022/05/20 02:23:20;;;;;;;2.58;1.90;;;;;;;;;;4988780;28;20059;-75
2022/05/20 02:25:52;;;;;;;4.28;2.25;;;;;;;;;;4988306;28;20054;-72
2022/05/20 02:28:20;;;;;;;3.17;2.25;;;;;;;;;;5000260;28;20032;-71
2022/05/20 02:30:46;;;;;;;3.95;2.20;;;;;;;;;;5000868;28;20299;-75
2022/05/20 02:33:14;;;;;;;2.10;1.90;;;;;;;;;;5000891;28;20045;-73
2022/05/20 02:35:39;;;;;;;1.40;1.30;;;;;;;;;;5000900;28;20047;-75
2022/05/20 02:38:07;;;;;;;1.85;1.63;;;;;;;;;;5000980;28;20109;-72
2022/05/20 02:40:32;;;;;;;1.95;1.63;;;;;;;;;;5001694;28;20466;-72
2022/05/20 02:42:57;;;;;;;2.92;2.05;;;;;;;;;;5001600;28;20210;-75
2022/05/20 02:45:23;;;;;;;3.15;2.13;;;;;;;;;;5000240;28;20037;-73
2022/05/20 02:47:48;;;;;;;1.90;1.50;;;;;;;;;;5001028;28;20100;-72
2022/05/20 02:50:13;;;;;;;1.85;1.63;;;;;;;;;;4989322;28;20022;-73
2022/05/20 02:52:39;;;;;;;2.08;1.73;;;;;;;;;;4990983;28;20049;-72
2022/05/20 02:55:05;;;;;;;3.30;1.80;;;;;;;;;;4999886;28;20041;-75
2022/05/20 02:57:31;;;;;;;2.58;1.60;;;;;;;;;;5015212;28;21119;-72
2022/05/20 03:05:24;;;;;;;2.53;2.08;;;;;;;;;;5003560;28;20048;-72
2022/05/20 03:07:49;;;;;;;2.38;1.90;;;;;;;;;;5004182;28;20018;-71
2022/05/20 03:10:15;;;;;;;2.38;2.10;;;;;;;;;;5011083;28;20083;-71
2022/05/20 03:12:40;;;;;;;2.22;2.03;;;;;;;;;;5012750;28;20572;-73
2022/05/20 03:15:08;;;;;;;2.95;2.08;;;;;;;;;;5009732;28;20021;-73
2022/05/20 03:17:34;;;;;;;1.98;1.40;;;;;;;;;;5004414;28;20848;-73
2022/05/20 03:19:59;;;;;;;1.77;1.50;;;;;;;;;;4998007;28;20049;-72
2022/05/20 03:22:24;;;;;;;2.17;1.80;;;;;;;;;;4980591;28;20070;-74
2022/05/20 03:24:50;;;;;;;2.00;1.67;;;;;;;;;;4994748;28;20057;-71
2022/05/20 03:27:17;;;;;;;2.33;1.83;;;;;;;;;;5002374;28;20025;-72
2022/05/20 03:29:43;;;;;;;2.75;1.73;;;;;;;;;;5011600;28;20033;-72
2022/05/20 03:32:08;;;;;;;2.30;1.92;;;;;;;;;;5014822;28;20022;-71
2022/05/20 03:34:34;;;;;;;3.17;1.90;;;;;;;;;;5014952;28;20048;-73
2022/05/20 03:36:59;;;;;;;1.88;1.63;;;;;;;;;;5010595;28;20362;-71
2022/05/20 03:39:25;;;;;;;4.10;1.98;;;;;;;;;;5015601;28;20437;-72
2022/05/20 03:41:50;;;;;;;2.67;1.77;;;;;;;;;;5013692;28;20489;-74
2022/05/20 03:44:16;;;;;;;2.17;1.73;;;;;;;;;;5012833;28;20065;-73
2022/05/20 03:46:51;;;;;;;1.73;1.48;;;;;;;;;;5013316;28;20025;-73
2022/05/20 03:49:16;;;;;;;2.38;1.65;;;;;;;;;;5015617;28;20029;-74
2022/05/20 03:51:42;;;;;;;1.60;1.30;;;;;;;;;;5013607;28;20029;-73
2022/05/20 03:54:07;;;;;;;2.72;1.60;;;;;;;;;;4955116;28;20050;-75
2022/05/20 03:56:33;;;;;;;1.70;1.45;;;;;;;;;;4961913;28;20039;-71
2022/05/20 03:58:58;;;;;;;2.10;1.65;;;;;;;;;;4969884;28;20161;-71
2022/05/20 04:04:07;;;;;;;1.52;1.40;;;;;;;;;;4952944;28;20062;-71
2022/05/20 04:06:32;;;;;;;2.70;1.67;;;;;;;;;;4968353;28;20402;-71
2022/05/20 04:08:58;;;;;;;4.45;1.50;;;;;;;;;;4968605;28;20745;-72
2022/05/20 04:11:24;;;;;;;3.65;1.38;;;;;;;;;;4965096;28;20128;-71
2022/05/20 04:13:49;;;;;;;4.88;2.15;;;;;;;;;;4960231;28;20434;-72
2022/05/20 04:16:15;;;;;;;2.47;2.00;;;;;;;;;;4962102;28;20072;-73
2022/05/20 04:18:41;;;;;;;2.30;1.90;;;;;;;;;;4961188;28;20108;-71
2022/05/20 04:21:07;;;;;;;4.32;2.40;;;;;;;;;;4963900;28;20027;-72
2022/05/20 04:23:33;;;;;;;2.80;2.20;;;;;;;;;;4961400;28;20073;-72
2022/05/20 04:25:58;;;;;;;2.78;2.03;;;;;;;;;;4965938;28;20066;-76
2022/05/20 04:28:23;;;;;;;3.55;1.70;;;;;;;;;;4959117;28;20018;-73
2022/05/20 04:30:50;;;;;;;3.05;2.13;;;;;;;;;;4965929;28;20220;-72
2022/05/20 04:33:16;;;;;;;3.20;1.55;;;;;;;;;;4961074;28;20026;-73
2022/05/20 04:35:41;;;;;;;2.08;1.60;;;;;;;;;;4956028;28;20027;-72
2022/05/20 04:38:07;;;;;;;2.58;1.75;;;;;;;;;;4960089;28;20208;-74
2022/05/20 04:40:32;;;;;;;1.45;1.35;;;;;;;;;;4969099;28;20018;-72
2022/05/20 04:48:25;;;;;;;3.47;2.45;;;;;;;;;;4969776;28;20093;-73
2022/05/20 04:50:50;;;;;;;6.10;3.53;;;;;;;;;;4968831;28;20026;-72
2022/05/20 04:54:49;;;;;;;6.22;3.63;;;;;;;;;;4969723;28;20499;-72
2022/05/20 04:56:01;;;;;;;8.30;4.22;;;;;;;;;;4990876;28;20433;-73
2022/05/20 04:58:26;;;;;;;5.95;3.83;;;;;;;;;;4988392;28;20025;-70
2022/05/20 05:00:54;;;;;;;7.82;3.60;;;;;;;;;;4988724;28;20083;-74
2022/05/20 05:03:19;;;;;;;6.07;2.90;;;;;;;;;;4987760;28;20238;-74
2022/05/20 05:05:44;;;;;;;3.50;2.42;;;;;;;;;;4987145;28;20432;-74
2022/05/20 05:08:09;;;;;;;4.68;2.00;;;;;;;;;;4988739;28;20037;-73
2022/05/20 05:10:36;;;;;;;3.15;2.20;;;;;;;;;;4988442;28;20104;-72
2022/05/20 05:13:02;;;;;;;2.85;1.90;;;;;;;;;;4989535;28;20061;-73
2022/05/20 05:15:28;;;;;;;2.50;1.58;;;;;;;;;;4987910;28;20057;-72
2022/05/20 05:18:09;;;;;;;2.08;1.55;;;;;;;;;;4986743;28;20036;-71
2022/05/20 05:20:35;;;;;;;1.92;1.73;;;;;;;;;;4987508;28;20014;-71
2022/05/20 05:23:01;;;;;;;2.15;1.38;;;;;;;;;;4997067;28;21178;-70
2022/05/20 05:25:28;;;;;;;1.40;1.25;;;;;;;;;;4987997;28;20095;-73
2022/05/20 05:27:54;;;;;;;2.78;1.60;;;;;;;;;;4991249;28;20036;-72
2022/05/20 05:30:20;;;;;;;1.48;1.15;;;;;;;;;;5002804;28;20108;-74
2022/05/20 05:32:45;;;;;;;2.92;1.60;;;;;;;;;;4996257;28;20395;-76
2022/05/20 05:35:13;;;;;;;1.77;1.30;;;;;;;;;;4986901;28;20536;-73
2022/05/20 05:37:39;;;;;;;1.50;1.40;;;;;;;;;;4987116;28;20117;-75
2022/05/20 05:40:05;;;;;;;2.22;1.25;;;;;;;;;;5000444;28;20104;-75
2022/05/20 05:42:30;;;;;;;3.85;1.77;;;;;;;;;;5001833;28;20030;-74
2022/05/20 05:44:56;;;;;;;2.88;1.42;;;;;;;;;;5001747;28;20092;-71
2022/05/20 05:47:21;;;;;;;2.15;1.30;;;;;;;;;;5003088;28;20488;-72
2022/05/20 05:49:47;;;;;;;1.92;1.33;;;;;;;;;;5002652;28;20361;-72
2022/05/20 05:52:12;;;;;;;1.20;1.05;;;;;;;;;;5003787;28;20036;-71
2022/05/20 05:54:37;;;;;;;2.58;1.30;;;;;;;;;;5014376;28;20021;-72
2022/05/20 05:57:03;;;;;;;2.22;1.33;;;;;;;;;;5014545;28;21206;-72
2022/05/20 05:59:28;;;;;;;1.58;1.23;;;;;;;;;;5015307;28;20026;-72
2022/05/20 06:02:01;;;;;;;1.40;1.13;;;;;;;;;;5013581;28;20022;-72
2022/05/20 06:04:27;;;;;;;1.27;1.13;;;;;;;;;;5015486;28;21610;-73
2022/05/20 06:06:52;;;;;;;1.10;1.00;;;;;;;;;;5016763;28;20061;-72
2022/05/20 06:09:17;;;;;;;1.58;1.08;;;;;;;;;;5017167;28;20095;-72
2022/05/20 06:11:43;;;;;;;3.33;1.38;;;;;;;;;;5014234;28;20026;-73
2022/05/20 06:14:09;;;;;;;2.67;1.58;;;;;;;;;;5007435;28;20036;-73
2022/05/20 06:16:34;;;;;;;2.80;1.20;;;;;;;;;;5013716;28;20386;-72
2022/05/20 06:19:00;;;;;;;2.88;1.23;;;;;;;;;;5016440;28;20036;-73
2022/05/20 06:21:26;;;;;;;1.88;1.35;;;;;;;;;;5010997;28;20026;-78
2022/05/20 06:23:51;;;;;;;2.30;1.58;;;;;;;;;;5015422;28;20037;-73
2022/05/20 06:26:17;;;;;;;1.75;0.85;;;;;;;;;;5014333;28;20036;-72
2022/05/20 06:28:42;;;;;;;0.98;0.88;;;;;;;;;;4997989;28;20335;-72
2022/05/20 06:31:07;;;;;;;1.48;1.00;;;;;;;;;;5016953;28;20028;-74
2022/05/20 06:33:33;;;;;;;1.27;1.02;;;;;;;;;;4997871;28;20073;-73
2022/05/20 06:41:26;;;;;;;1.48;0.82;;;;;;;;;;5004804;28;20036;-75
2022/05/20 06:43:52;;;;;;;3.25;1.10;;;;;;;;;;4994738;28;20041;-72
2022/05/20 06:46:17;;;;;;;1.85;0.90;;;;;;;;;;5018341;28;20053;-72
2022/05/20 06:48:46;;;;;;;2.25;0.90;;;;;;;;;;5015847;28;20118;-72
2022/05/20 06:51:13;;;;;;;2.55;1.10;;;;;;;;;;5016251;28;20029;-73
2022/05/20 06:53:38;;;;;;;1.48;1.30;;;;;;;;;;5007569;28;20497;-73
2022/05/20 06:56:04;;;;;;;1.13;0.90;;;;;;;;;;5002274;28;20041;-73
2022/05/20 06:58:31;;;;;;;0.95;0.88;;;;;;;;;;5002728;28;20021;-72
2022/05/20 07:00:56;;;;;;;2.47;1.20;;;;;;;;;;5002585;28;20333;-76
2022/05/20 07:03:22;;;;;;;1.23;1.13;;;;;;;;;;5002492;28;20041;-72
2022/05/20 07:05:47;;;;;;;2.65;1.38;;;;;;;;;;5001692;28;20055;-73
2022/05/20 07:08:13;;;;;;;1.10;1.00;;;;;;;;;;5002594;28;20026;-73
2022/05/20 07:10:39;;;;;;;1.60;1.20;;;;;;;;;;5002101;28;20493;-73
2022/05/20 07:13:05;;;;;;;1.80;1.23;;;;;;;;;;5003024;28;20038;-73
2022/05/20 07:15:31;;;;;;;2.22;1.20;;;;;;;;;;5002286;28;20033;-72
2022/05/20 07:17:56;;;;;;;2.28;1.35;;;;;;;;;;5002764;28;20650;-74
2022/05/20 07:20:22;;;;;;;1.52;1.10;;;;;;;;;;5002013;28;20129;-72
2022/05/20 07:22:47;;;;;;;2.30;1.27;;;;;;;;;;5003054;28;20403;-72
2022/05/20 07:25:12;;;;;;;1.88;1.17;;;;;;;;;;5002163;28;20439;-72
2022/05/20 07:27:38;;;;;;;1.50;1.38;;;;;;;;;;4987824;28;20033;-72
2022/05/20 07:30:04;;;;;;;1.58;1.00;;;;;;;;;;5002426;28;20042;-72
2022/05/20 07:32:29;;;;;;;1.80;1.40;;;;;;;;;;5002514;28;20097;-72
2022/05/20 07:34:55;;;;;;;2.17;1.23;;;;;;;;;;5002797;28;20059;-72
2022/05/20 07:37:20;;;;;;;5.28;2.75;;;;;;;;;;5002414;28;20862;-77
2022/05/20 07:39:46;;;;;;;2.75;1.95;;;;;;;;;;5002291;28;20022;-71
2022/05/20 07:42:12;;;;;;;1.05;0.90;;;;;;;;;;5002383;28;20100;-79
2022/05/20 07:44:38;;;;;;;3.25;1.77;;;;;;;;;;5002390;28;20096;-71
2022/05/20 07:47:03;;;;;;;3.17;2.38;;;;;;;;;;5002386;28;20025;-73
2022/05/20 07:49:28;;;;;;;9.35;7.30;;;;;;;;;;5002419;28;20051;-71
2022/05/20 07:51:57;;;;;;;9.02;5.80;;;;;;;;;;5001583;28;20402;-72
2022/05/20 07:54:24;;;;;;;1.63;1.50;;;;;;;;;;5000470;28;20165;-75
2022/05/20 07:56:55;;;;;;;3.30;3.00;;;;;;;;;;5002158;28;20040;-71
2022/05/20 07:59:25;;;;;;;2.88;1.48;;;;;;;;;;5002032;28;20460;-71
2022/05/20 08:01:52;;;;;;;6.25;5.50;;;;;;;;;;5001887;28;20022;-73
2022/05/20 08:07:04;;;;;;;2.17;1.60;;;;;;;;;;5000927;28;20107;-75
2022/05/20 08:09:30;;;;;;;1.42;1.33;;;;;;;;;;5001842;28;20041;-77
2022/05/20 08:11:56;;;;;;;2.35;1.20;;;;;;;;;;5000446;28;20041;-75
2022/05/20 08:14:22;;;;;;;2.50;1.20;;;;;;;;;;5001295;28;20433;-71
2022/05/20 08:16:47;;;;;;;2.85;1.20;;;;;;;;;;5001204;28;20025;-71
2022/05/20 08:19:12;;;;;;;1.00;0.90;;;;;;;;;;5001836;28;20026;-72
2022/05/20 08:21:38;;;;;;;1.10;0.80;;;;;;;;;;5001956;28;20744;-71
2022/05/20 08:24:03;;;;;;;1.50;1.05;;;;;;;;;;5001559;28;20042;-76
2022/05/20 08:26:29;;;;;;;1.05;0.95;;;;;;;;;;5002187;28;20053;-71
2022/05/20 08:28:54;;;;;;;1.20;0.75;;;;;;;;;;5000846;28;20022;-76
2022/05/20 08:31:19;;;;;;;0.77;0.70;;;;;;;;;;5002268;28;20022;-73
2022/05/20 08:33:46;;;;;;;0.93;0.80;;;;;;;;;;5002466;28;20058;-71
2022/05/20 08:36:11;;;;;;;1.77;0.80;;;;;;;;;;5001871;28;20365;-75
2022/05/20 08:38:36;;;;;;;1.00;0.88;;;;;;;;;;5000959;28;20029;-71
2022/05/20 08:41:02;;;;;;;1.13;0.82;;;;;;;;;;5002271;28;20033;-72
2022/05/20 08:43:32;;;;;;;0.80;0.80;;;;;;;;;;4993590;28;20045;-74
2022/05/20 08:45:59;;;;;;;0.93;0.85;;;;;;;;;;5001494;28;20030;-71
2022/05/20 08:48:25;;;;;;;1.08;0.82;;;;;;;;;;5001660;28;20449;-71
2022/05/20 08:50:51;;;;;;;2.63;1.20;;;;;;;;;;5002113;28;20034;-78
2022/05/20 08:53:18;;;;;;;2.13;0.95;;;;;;;;;;5001047;28;20054;-73
2022/05/20 08:55:44;;;;;;;2.72;0.88;;;;;;;;;;5001452;28;20033;-71
2022/05/20 08:58:10;;;;;;;1.95;0.90;;;;;;;;;;5001166;28;20361;-72
2022/05/20 09:00:36;;;;;;;1.00;0.90;;;;;;;;;;5002258;28;20026;-74
2022/05/20 09:03:06;;;;;;;1.58;0.95;;;;;;;;;;5000637;28;20037;-73
2022/05/20 09:05:33;;;;;;;2.50;1.25;;;;;;;;;;5001669;28;20068;-73
2022/05/20 09:08:00;;;;;;;2.28;1.10;;;;;;;;;;5003354;28;20034;-71
2022/05/20 09:10:32;;;;;;;1.90;1.10;;;;;;;;;;5004097;28;20477;-72
2022/05/20 09:13:06;;;;;;;1.38;1.00;;;;;;;;;;5004355;28;20102;-74
2022/05/20 09:15:43;;;;;;;1.58;1.10;;;;;;;;;;5003691;28;20037;-72
2022/05/20 09:18:11;;;;;;;1.50;1.15;;;;;;;;;;5004450;28;20033;-72
2022/05/20 09:20:47;;;;;;;0.85;0.85;;;;;;;;;;5005055;28;20044;-73
2022/05/20 09:23:15;;;;;;;1.33;1.00;;;;;;;;;;5004580;28;20083;-72
2022/05/20 09:25:55;;;;;;;1.15;0.80;;;;;;;;;;5004402;28;20026;-76
2022/05/20 09:28:21;;;;;;;1.55;1.08;;;;;;;;;;5004096;28;20034;-76
2022/05/20 09:30:48;;;;;;;3.50;1.00;;;;;;;;;;5004626;28;20022;-74
2022/05/20 09:33:22;;;;;;;1.27;1.00;;;;;;;;;;5004383;28;20030;-71
2022/05/20 09:35:50;;;;;;;1.33;1.23;;;;;;;;;;5008283;28;20036;-74
2022/05/20 09:38:29;;;;;;;1.05;0.80;;;;;;;;;;5004905;28;20021;-72
2022/05/20 09:40:54;;;;;;;1.67;1.05;;;;;;;;;;5003154;28;20029;-72
2022/05/20 09:43:25;;;;;;;0.95;0.80;;;;;;;;;;5002457;28;20026;-75
2022/05/20 09:45:51;;;;;;;2.20;0.98;;;;;;;;;;5003788;28;20057;-75
2022/05/20 09:48:22;;;;;;;1.92;0.82;;;;;;;;;;5004311;28;20895;-71
2022/05/20 09:51:05;;;;;;;0.93;0.80;;;;;;;;;;5003664;28;20060;-75
2022/05/20 09:53:35;;;;;;;1.20;0.95;;;;;;;;;;5004176;28;22631;-72
2022/05/20 09:56:13;;;;;;;1.38;0.90;;;;;;;;;;5003463;28;20042;-72
2022/05/20 09:58:38;;;;;;;2.35;1.00;;;;;;;;;;5003692;28;20513;-73
2022/05/20 10:01:06;;;;;;;1.25;1.15;;;;;;;;;;5003626;28;20101;-71
2022/05/20 10:03:37;;;;;;;1.98;0.80;;;;;;;;;;5003428;28;20055;-71
2022/05/20 10:06:14;;;;;;;1.73;0.90;;;;;;;;;;5003392;28;20035;-74
2022/05/20 10:08:46;;;;;;;2.33;1.02;;;;;;;;;;4992862;28;20437;-72
2022/05/20 10:11:25;;;;;;;0.95;0.85;;;;;;;;;;5002812;28;20030;-75
2022/05/20 10:13:53;;;;;;;1.20;0.77;;;;;;;;;;5002216;28;20077;-73
2022/05/20 10:16:33;;;;;;;1.25;0.85;;;;;;;;;;5003708;28;20030;-73
2022/05/20 10:19:11;;;;;;;1.92;0.82;;;;;;;;;;5002545;28;20084;-71
2022/05/20 10:21:39;;;;;;;0.63;0.60;;;;;;;;;;5003486;28;20153;-71
2022/05/20 10:24:18;;;;;;;1.77;0.98;;;;;;;;;;5003016;28;20156;-72
2022/05/20 10:26:48;;;;;;;0.93;0.70;;;;;;;;;;5003963;28;20480;-71
2022/05/20 10:32:34;;;;;;;1.20;0.82;;;;;;;;;;5004211;28;20052;-72
2022/05/20 10:35:00;;;;;;;2.25;0.90;;;;;;;;;;5003007;28;20038;-73
2022/05/20 10:37:47;;;;;;;0.70;0.70;;;;;;;;;;5001210;28;20029;-72
2022/05/20 10:40:18;;;;;;;0.68;0.68;;;;;;;;;;5003152;28;20036;-76
2022/05/20 10:42:43;;;;;;;2.67;0.90;;;;;;;;;;5003008;28;20615;-72
2022/05/20 10:51:09;;;;;;;1.58;0.77;;;;;;;;;;5003345;28;20104;-74
2022/05/20 10:53:34;;;;;;;0.75;0.70;;;;;;;;;;5008528;28;20071;-72
2022/05/20 10:56:09;;;;;;;2.17;0.70;;;;;;;;;;5010617;28;20023;-72
2022/05/20 10:58:40;;;;;;;2.50;1.00;;;;;;;;;;5008964;28;20061;-74
2022/05/20 11:01:17;;;;;;;0.57;0.57;;;;;;;;;;5017034;28;20033;-72
2022/05/20 11:04:01;;;;;;;0.68;0.50;;;;;;;;;;5015209;28;20037;-74
2022/05/20 11:06:44;;;;;;;0.60;0.60;;;;;;;;;;5017416;28;20071;-72
2022/05/20 11:09:09;;;;;;;0.82;0.50;;;;;;;;;;4996234;28;20067;-72
2022/05/20 11:11:43;;;;;;;1.27;0.60;;;;;;;;;;4999074;28;20418;-72
2022/05/20 11:14:11;;;;;;;0.60;0.60;;;;;;;;;;4999605;28;20037;-73
2022/05/20 11:16:37;;;;;;;0.75;0.60;;;;;;;;;;5016403;28;20033;-73
2022/05/20 11:19:11;;;;;;;3.07;1.00;;;;;;;;;;5014411;28;20041;-73
2022/05/20 11:21:55;;;;;;;0.60;0.60;;;;;;;;;;5014062;28;20251;-73
2022/05/20 11:24:39;;;;;;;0.77;0.73;;;;;;;;;;5016183;28;20409;-72
2022/05/20 11:27:14;;;;;;;1.08;0.63;;;;;;;;;;5014832;28;20330;-72
2022/05/20 11:29:39;;;;;;;0.55;0.43;;;;;;;;;;5014273;28;20036;-72
2022/05/20 11:32:07;;;;;;;0.67;0.60;;;;;;;;;;4997142;28;20337;-71
2022/05/20 11:34:38;;;;;;;1.05;0.80;;;;;;;;;;5014468;28;20791;-73
2022/05/20 11:37:03;;;;;;;0.52;0.52;;;;;;;;;;4988127;28;20031;-76
2022/05/20 11:39:34;;;;;;;0.50;0.50;;;;;;;;;;5006094;28;20036;-73
2022/05/20 11:42:12;;;;;;;0.55;0.55;;;;;;;;;;5014643;28;20034;-75
2022/05/20 11:44:52;;;;;;;0.97;0.80;;;;;;;;;;5016040;28;20055;-72
2022/05/20 11:47:39;;;;;;;1.10;0.65;;;;;;;;;;5016370;28;20087;-72
2022/05/20 11:50:04;;;;;;;1.02;0.70;;;;;;;;;;5014473;28;20044;-72
2022/05/20 11:52:39;;;;;;;2.30;0.83;;;;;;;;;;5012504;28;20391;-72
2022/05/20 11:55:20;;;;;;;1.05;0.80;;;;;;;;;;5014278;28;20736;-74
2022/05/20 11:58:14;;;;;;;0.70;0.70;;;;;;;;;;5014957;28;20476;-76
2022/05/20 12:00:41;;;;;;;0.55;0.55;;;;;;;;;;4983134;28;20087;-73
2022/05/20 12:03:11;;;;;;;2.17;0.80;;;;;;;;;;5016266;28;20041;-75
2022/05/20 12:05:39;;;;;;;0.63;0.57;;;;;;;;;;5015751;28;20030;-73
2022/05/20 12:08:04;;;;;;;0.75;0.75;;;;;;;;;;5015337;28;20037;-73
2022/05/20 12:10:29;;;;;;;0.88;0.88;;;;;;;;;;5015537;28;20029;-73
2022/05/20 12:13:14;;;;;;;2.63;1.20;;;;;;;;;;5016766;28;20038;-72
2022/05/20 12:15:44;;;;;;;0.88;0.80;;;;;;;;;;5012347;28;20287;-72
2022/05/20 12:24:22;;;;;;;0.98;0.63;;;;;;;;;;4963884;28;20058;-72
2022/05/20 12:26:54;;;;;;;1.38;0.68;;;;;;;;;;5016117;28;20042;-73
2022/05/20 12:29:34;;;;;;;1.63;0.85;;;;;;;;;;5015126;28;20104;-72
2022/05/20 12:32:00;;;;;;;1.08;0.70;;;;;;;;;;5014645;28;20084;-72
2022/05/20 12:34:39;;;;;;;0.60;0.60;;;;;;;;;;5015566;28;20429;-73
2022/05/20 12:37:05;;;;;;;0.95;0.60;;;;;;;;;;5016660;28;20585;-75
2022/05/20 12:39:47;;;;;;;1.20;0.60;;;;;;;;;;5015557;28;20036;-73
2022/05/20 12:42:26;;;;;;;0.68;0.40;;;;;;;;;;5018592;28;20030;-76
2022/05/20 12:44:52;;;;;;;2.20;0.60;;;;;;;;;;5021070;28;20057;-76
2022/05/20 12:47:27;;;;;;;0.93;0.70;;;;;;;;;;5021225;28;20411;-74
2022/05/20 12:49:58;;;;;;;1.17;0.77;;;;;;;;;;5017555;28;20084;-75
2022/05/20 12:52:26;;;;;;;0.50;0.50;;;;;;;;;;5019157;28;20132;-76
2022/05/20 12:54:55;;;;;;;0.63;0.57;;;;;;;;;;5017347;28;20098;-72
2022/05/20 12:57:26;;;;;;;0.40;0.40;;;;;;;;;;5020118;28;20036;-72
2022/05/20 13:00:02;;;;;;;0.82;0.80;;;;;;;;;;5019981;28;20436;-71
2022/05/20 13:02:38;;;;;;;0.80;0.70;;;;;;;;;;5018177;28;20037;-71
2022/05/20 13:05:06;;;;;;;1.23;0.68;;;;;;;;;;5017771;28;20125;-73
2022/05/20 13:07:33;;;;;;;2.45;0.77;;;;;;;;;;5018091;28;20411;-73
2022/05/20 13:09:59;;;;;;;1.35;1.00;;;;;;;;;;5020929;28;20025;-76
2022/05/20 13:12:25;;;;;;;0.50;0.50;;;;;;;;;;5017978;28;20087;-76
2022/05/20 13:14:55;;;;;;;0.90;0.70;;;;;;;;;;5020381;28;20021;-72
2022/05/20 13:17:21;;;;;;;0.57;0.57;;;;;;;;;;4999927;28;20085;-73
2022/05/20 13:19:49;;;;;;;1.63;0.70;;;;;;;;;;5015284;28;20460;-73
2022/05/20 13:22:16;;;;;;;1.55;0.70;;;;;;;;;;4998880;28;20026;-72
2022/05/20 13:24:41;;;;;;;3.33;0.75;;;;;;;;;;5015304;28;20418;-74
2022/05/20 13:27:10;;;;;;;1.23;0.75;;;;;;;;;;5017025;28;20077;-72
2022/05/20 13:29:35;;;;;;;0.50;0.50;;;;;;;;;;5015127;28;20018;-74
2022/05/20 13:32:15;;;;;;;0.60;0.60;;;;;;;;;;5006576;28;20036;-76
2022/05/20 13:34:44;;;;;;;2.40;0.80;;;;;;;;;;5018107;28;20029;-72
2022/05/20 13:37:11;;;;;;;0.95;0.70;;;;;;;;;;5002912;28;20030;-72
2022/05/20 13:39:36;;;;;;;1.13;1.02;;;;;;;;;;5004496;28;20026;-73
2022/05/20 13:42:06;;;;;;;0.60;0.60;;;;;;;;;;5008818;28;20345;-76
2022/05/20 13:44:32;;;;;;;0.70;0.70;;;;;;;;;;5019165;28;20033;-73
2022/05/20 13:49:44;;;;;;;0.60;0.60;;;;;;;;;;5018009;28;20080;-72
2022/05/20 13:52:12;;;;;;;0.73;0.68;;;;;;;;;;5017566;28;20061;-72
2022/05/20 13:54:50;;;;;;;1.02;0.93;;;;;;;;;;5017238;28;20057;-76
2022/05/20 13:57:15;;;;;;;;;;;;;;;;;;5017301;28;20053;-74
2022/05/20 13:59:42;;;;;;;0.97;0.63;;;;;;;;;;5001914;28;19969;-72
2022/05/20 14:02:10;;;;;;;0.40;0.40;;;;;;;;;;5016491;28;20030;-73
2022/05/20 14:04:47;;;;;;;1.02;0.57;;;;;;;;;;5005765;28;20037;-72
2022/05/20 14:07:18;;;;;;;1.90;0.82;;;;;;;;;;5014122;28;20034;-74
2022/05/20 14:09:50;;;;;;;1.70;0.90;;;;;;;;;;5013512;28;20030;-73
2022/05/20 14:12:25;;;;;;;0.60;0.60;;;;;;;;;;5001125;28;20421;-73
2022/05/20 14:14:59;;;;;;;1.30;0.80;;;;;;;;;;4961829;28;20035;-73
2022/05/20 14:17:25;;;;;;;3.47;1.17;;;;;;;;;;5014595;28;20095;-73
2022/05/20 14:19:51;;;;;;;0.93;0.88;;;;;;;;;;4998304;28;20286;-76
2022/05/20 14:22:17;;;;;;;0.60;0.60;;;;;;;;;;5008555;28;20075;-74
2022/05/20 14:24:49;;;;;;;0.70;0.70;;;;;;;;;;4996382;28;20045;-71
2022/05/20 14:27:33;;;;;;;0.98;0.63;;;;;;;;;;4994289;28;20026;-75
2022/05/20 14:30:17;;;;;;;1.20;0.60;;;;;;;;;;5001648;28;20035;-75
2022/05/20 14:32:42;;;;;;;1.38;0.73;;;;;;;;;;4999548;28;20030;-74
2022/05/20 14:35:07;;;;;;;0.70;0.70;;;;;;;;;;4976480;28;20468;-75
2022/05/20 14:37:33;;;;;;;3.65;1.10;;;;;;;;;;5004686;28;20076;-75
2022/05/20 14:40:08;;;;;;;2.92;1.20;;;;;;;;;;4998930;28;20037;-77
2022/05/20 14:42:44;;;;;;;1.77;0.75;;;;;;;;;;4984090;28;20025;-74
2022/05/20 14:45:20;;;;;;;1.70;0.63;;;;;;;;;;4982606;28;20077;-75
2022/05/20 14:48:05;;;;;;;0.77;0.77;;;;;;;;;;5001817;28;20034;-76
2022/05/20 14:50:31;;;;;;;1.02;0.73;;;;;;;;;;4999877;28;20353;-78
2022/05/20 14:53:20;;;;;;;0.63;0.50;;;;;;;;;;4991587;28;20054;-73
2022/05/20 14:55:48;;;;;;;0.80;0.80;;;;;;;;;;4986115;28;20041;-75
2022/05/20 14:58:14;;;;;;;0.75;0.50;;;;;;;;;;4986439;28;20033;-75
2022/05/20 15:00:58;;;;;;;2.83;0.95;;;;;;;;;;4986555;28;20029;-75
2022/05/20 15:03:24;;;;;;;1.30;0.95;;;;;;;;;;4985362;28;20449;-76
2022/05/20 15:05:51;;;;;;;0.40;0.40;;;;;;;;;;4971932;28;21210;-76
2022/05/20 15:08:16;;;;;;;0.90;0.57;;;;;;;;;;4985730;28;20087;-75
2022/05/20 15:10:41;;;;;;;0.60;0.47;;;;;;;;;;4988369;28;20018;-76
2022/05/20 15:13:07;;;;;;;0.68;0.40;;;;;;;;;;4988860;28;20025;-75
2022/05/20 15:15:33;;;;;;;2.60;0.70;;;;;;;;;;4986767;28;20030;-78
2022/05/20 15:18:01;;;;;;;0.95;0.80;;;;;;;;;;4997681;28;20099;-77
2022/05/20 15:20:28;;;;;;;1.75;1.65;;;;;;;;;;5002189;28;20469;-76
2022/05/20 15:22:54;;;;;;;4.20;1.63;;;;;;;;;;4995030;28;20747;-78
2022/05/20 15:25:20;;;;;;;1.88;1.17;;;;;;;;;;4987160;28;20544;-79
2022/05/20 15:27:45;;;;;;;0.80;0.70;;;;;;;;;;5000042;28;20037;-76
2022/05/20 15:30:10;;;;;;;1.50;0.60;;;;;;;;;;5002323;28;20033;-76